PWSweather.com
Personal Weather Stations
Station Observations
PAGFWS20
VaudreuilDorion, VaudreuilDorion, QC j7v 1b1

VaudreuilDorionVaudreuilDorion, QC j7v 1b1

Lat: 45.401, Lon: -74.03

Elevation: 73

Station Type: PCE-FWS-20

http://www.zpag.net/weather/index.htm

Latest ConditionsUpdated 2:10:07 AM EDT Thursday, Oct 18, 2018
Currently Today's Max Today's Min Today's Average
Temperature 33.1°F0.6°C 35.2°F1.8°C 33.1°F0.6°C 34.2°F1.2°C
Dew Point 24.0°F-4.4°C 25.9°F-3.4°C 23.8°F-4.6°C 24.5°F-4.2°C
Winds Calm Calm Calm -Calm - - Calm Calm
Wind Gusts -- -- - -
Humidity 69% 70% 66% 67%
Pressure 30.33 in1027.1 mb 30.33 in1027.1 mb 30.27 in1025.1 mb -
Hour Temp Dew Point Humidity Winds Wind Gusts Pressure Precip Precip Rate Daily Precip Total
02:10 AM 33.1°F0.6°C 24.0°F-4.4°C 69% Calm Calm -- 30.33 in1027.1 mb 0.00 in0.0 mm 0.00 in0.0 mm 0.00 in0.0 mm
02:05 AM 33.3°F0.7°C 24.2°F-4.3°C 69% Calm Calm -- 30.33 in1027.1 mb 0.00 in0.0 mm 0.00 in0.0 mm 0.00 in0.0 mm
02:00 AM 33.3°F0.7°C 24.2°F-4.3°C 69% Calm Calm -- 30.33 in1027.1 mb 0.00 in0.0 mm 0.00 in0.0 mm 0.00 in0.0 mm
01:55 AM 33.3°F0.7°C 24.2°F-4.3°C 69% Calm Calm -- 30.32 in1026.8 mb 0.00 in0.0 mm 0.00 in0.0 mm 0.00 in0.0 mm
01:50 AM 33.3°F0.7°C 23.9°F-4.5°C 68% Calm Calm -- 30.32 in1026.8 mb 0.00 in0.0 mm 0.00 in0.0 mm 0.00 in0.0 mm
01:45 AM 33.4°F0.8°C 24.0°F-4.4°C 68% Calm Calm -- 30.32 in1026.8 mb 0.00 in0.0 mm 0.00 in0.0 mm 0.00 in0.0 mm
01:40 AM 33.6°F0.9°C 24.2°F-4.3°C 68% Calm Calm -- 30.31 in1026.4 mb 0.00 in0.0 mm 0.00 in0.0 mm 0.00 in0.0 mm
01:35 AM 33.6°F0.9°C 23.9°F-4.5°C 67% Calm Calm -- 30.32 in1026.8 mb 0.00 in0.0 mm 0.00 in0.0 mm 0.00 in0.0 mm
01:30 AM 33.6°F0.9°C 23.9°F-4.5°C 67% Calm Calm -- 30.31 in1026.4 mb 0.00 in0.0 mm 0.00 in0.0 mm 0.00 in0.0 mm
01:25 AM 33.6°F0.9°C 23.9°F-4.5°C 67% Calm Calm -- 30.30 in1026.1 mb 0.00 in0.0 mm 0.00 in0.0 mm 0.00 in0.0 mm
01:20 AM 34.0°F1.1°C 23.8°F-4.6°C 66% Calm Calm -- 30.30 in1026.1 mb 0.00 in0.0 mm 0.00 in0.0 mm 0.00 in0.0 mm
01:15 AM 34.2°F1.2°C 24.0°F-4.4°C 66% Calm Calm -- 30.30 in1026.1 mb 0.00 in0.0 mm 0.00 in0.0 mm 0.00 in0.0 mm
01:10 AM 34.2°F1.2°C 24.0°F-4.4°C 66% Calm Calm -- 30.30 in1026.1 mb 0.00 in0.0 mm 0.00 in0.0 mm 0.00 in0.0 mm
01:05 AM 34.2°F1.2°C 24.0°F-4.4°C 66% Calm Calm -- 30.29 in1025.7 mb 0.00 in0.0 mm 0.00 in0.0 mm 0.00 in0.0 mm
01:00 AM 34.3°F1.3°C 24.2°F-4.3°C 66% Calm Calm -- 30.29 in1025.7 mb 0.00 in0.0 mm 0.00 in0.0 mm 0.00 in0.0 mm
12:55 AM 34.7°F1.5°C 24.5°F-4.2°C 66% Calm Calm -- 30.29 in1025.7 mb 0.00 in0.0 mm 0.00 in0.0 mm 0.00 in0.0 mm
12:50 AM 34.7°F1.5°C 24.5°F-4.2°C 66% Calm Calm -- 30.29 in1025.7 mb 0.00 in0.0 mm 0.00 in0.0 mm 0.00 in0.0 mm
12:45 AM 34.9°F1.6°C 24.7°F-4.1°C 66% Calm Calm -- 30.29 in1025.7 mb 0.00 in0.0 mm 0.00 in0.0 mm 0.00 in0.0 mm
12:40 AM 35.1°F1.7°C 24.9°F-3.9°C 66% Calm Calm -- 30.29 in1025.7 mb 0.00 in0.0 mm 0.00 in0.0 mm 0.00 in0.0 mm
12:35 AM 35.2°F1.8°C 25.0°F-3.9°C 66% Calm Calm -- 30.28 in1025.4 mb 0.00 in0.0 mm 0.00 in0.0 mm 0.00 in0.0 mm
12:30 AM 35.2°F1.8°C 25.4°F-3.7°C 67% Calm Calm -- 30.28 in1025.4 mb 0.00 in0.0 mm 0.00 in0.0 mm 0.00 in0.0 mm
12:25 AM 34.9°F1.6°C 25.4°F-3.7°C 68% Calm Calm -- 30.28 in1025.4 mb 0.00 in0.0 mm 0.00 in0.0 mm 0.00 in0.0 mm
12:20 AM 34.5°F1.4°C 25.1°F-3.8°C 68% Calm Calm -- 30.27 in1025.1 mb 0.00 in0.0 mm 0.00 in0.0 mm 0.00 in0.0 mm
12:15 AM 34.7°F1.5°C 25.2°F-3.8°C 68% Calm Calm -- 30.27 in1025.1 mb 0.00 in0.0 mm 0.00 in0.0 mm 0.00 in0.0 mm
12:10 AM 34.9°F1.6°C 25.4°F-3.7°C 68% Calm Calm -- 30.27 in1025.1 mb 0.00 in0.0 mm 0.00 in0.0 mm 0.00 in0.0 mm
12:05 AM 34.9°F1.6°C 25.8°F-3.4°C 69% Calm Calm -- 30.27 in1025.1 mb 0.00 in0.0 mm 0.00 in0.0 mm 0.00 in0.0 mm
12:00 AM 34.7°F1.5°C 25.9°F-3.4°C 70% Calm Calm -- 30.27 in1025.1 mb 0.00 in0.0 mm 0.00 in0.0 mm 0.00 in0.0 mm